sensor_id;sensor_type;location;lat;lon;timestamp;P1;durP1;ratioP1;P2;durP2;ratioP2
10651;SDS011;5374;42.742;23.266;2023-11-21T00:01:21;32.87;;;20.00;;
10651;SDS011;5374;42.742;23.266;2023-11-21T00:04:11;37.57;;;21.70;;
10651;SDS011;5374;42.742;23.266;2023-11-21T00:07:12;33.80;;;21.40;;
10651;SDS011;5374;42.742;23.266;2023-11-21T00:10:00;34.17;;;19.77;;
10651;SDS011;5374;42.742;23.266;2023-11-21T00:12:48;24.90;;;16.37;;
10651;SDS011;5374;42.742;23.266;2023-11-21T00:15:36;24.40;;;16.47;;
10651;SDS011;5374;42.742;23.266;2023-11-21T00:18:23;28.90;;;16.23;;
10651;SDS011;5374;42.742;23.266;2023-11-21T00:21:10;22.43;;;15.00;;
10651;SDS011;5374;42.742;23.266;2023-11-21T00:23:59;26.23;;;15.13;;
10651;SDS011;5374;42.742;23.266;2023-11-21T00:26:46;23.27;;;14.73;;
10651;SDS011;5374;42.742;23.266;2023-11-21T00:29:34;23.73;;;14.07;;
10651;SDS011;5374;42.742;23.266;2023-11-21T00:32:21;23.67;;;14.20;;
10651;SDS011;5374;42.742;23.266;2023-11-21T00:35:08;23.57;;;14.47;;
10651;SDS011;5374;42.742;23.266;2023-11-21T00:37:56;25.50;;;15.53;;
10651;SDS011;5374;42.742;23.266;2023-11-21T00:40:45;19.90;;;14.27;;
10651;SDS011;5374;42.742;23.266;2023-11-21T00:43:32;19.47;;;12.97;;
10651;SDS011;5374;42.742;23.266;2023-11-21T00:46:19;21.57;;;13.63;;
10651;SDS011;5374;42.742;23.266;2023-11-21T00:49:06;20.60;;;12.83;;
10651;SDS011;5374;42.742;23.266;2023-11-21T00:51:54;20.80;;;13.20;;
10651;SDS011;5374;42.742;23.266;2023-11-21T00:54:41;19.03;;;12.23;;
10651;SDS011;5374;42.742;23.266;2023-11-21T00:57:29;17.03;;;11.40;;
10651;SDS011;5374;42.742;23.266;2023-11-21T01:00:18;19.53;;;12.73;;
10651;SDS011;5374;42.742;23.266;2023-11-21T01:03:05;22.40;;;13.63;;
10651;SDS011;5374;42.742;23.266;2023-11-21T01:05:53;22.77;;;14.13;;
10651;SDS011;5374;42.742;23.266;2023-11-21T01:08:40;23.50;;;14.70;;
10651;SDS011;5374;42.742;23.266;2023-11-21T01:11:27;21.63;;;14.20;;
10651;SDS011;5374;42.742;23.266;2023-11-21T01:14:16;25.37;;;13.87;;
10651;SDS011;5374;42.742;23.266;2023-11-21T01:17:04;21.47;;;14.13;;
10651;SDS011;5374;42.742;23.266;2023-11-21T01:19:51;44.20;;;21.80;;
10651;SDS011;5374;42.742;23.266;2023-11-21T01:22:39;49.40;;;26.13;;
10651;SDS011;5374;42.742;23.266;2023-11-21T01:25:26;45.77;;;21.27;;
10651;SDS011;5374;42.742;23.266;2023-11-21T01:28:13;30.87;;;16.83;;
10651;SDS011;5374;42.742;23.266;2023-11-21T01:31:02;30.80;;;16.30;;
10651;SDS011;5374;42.742;23.266;2023-11-21T01:33:49;24.03;;;13.97;;
10651;SDS011;5374;42.742;23.266;2023-11-21T01:36:37;24.10;;;12.23;;
10651;SDS011;5374;42.742;23.266;2023-11-21T01:39:24;24.20;;;15.43;;
10651;SDS011;5374;42.742;23.266;2023-11-21T01:42:12;29.97;;;16.30;;
10651;SDS011;5374;42.742;23.266;2023-11-21T01:44:59;37.17;;;19.57;;
10651;SDS011;5374;42.742;23.266;2023-11-21T01:47:51;40.10;;;22.17;;
10651;SDS011;5374;42.742;23.266;2023-11-21T01:50:39;30.90;;;18.83;;
10651;SDS011;5374;42.742;23.266;2023-11-21T01:53:26;27.30;;;16.60;;
10651;SDS011;5374;42.742;23.266;2023-11-21T01:56:14;23.23;;;15.50;;
10651;SDS011;5374;42.742;23.266;2023-11-21T01:59:01;24.33;;;16.00;;
10651;SDS011;5374;42.742;23.266;2023-11-21T02:01:49;24.00;;;13.73;;
10651;SDS011;5374;42.742;23.266;2023-11-21T02:04:39;26.87;;;14.93;;
10651;SDS011;5374;42.742;23.266;2023-11-21T02:07:26;19.23;;;12.17;;
10651;SDS011;5374;42.742;23.266;2023-11-21T02:10:14;15.90;;;10.30;;
10651;SDS011;5374;42.742;23.266;2023-11-21T02:13:01;15.60;;;10.80;;
10651;SDS011;5374;42.742;23.266;2023-11-21T02:15:49;16.87;;;9.50;;
10651;SDS011;5374;42.742;23.266;2023-11-21T02:18:37;14.93;;;9.80;;
10651;SDS011;5374;42.742;23.266;2023-11-21T02:21:28;14.13;;;9.33;;
10651;SDS011;5374;42.742;23.266;2023-11-21T02:24:19;10.73;;;7.73;;
10651;SDS011;5374;42.742;23.266;2023-11-21T02:27:06;14.23;;;8.30;;
10651;SDS011;5374;42.742;23.266;2023-11-21T02:29:54;13.97;;;8.97;;
10651;SDS011;5374;42.742;23.266;2023-11-21T02:32:41;12.37;;;8.70;;
10651;SDS011;5374;42.742;23.266;2023-11-21T02:35:28;13.67;;;8.70;;
10651;SDS011;5374;42.742;23.266;2023-11-21T02:38:16;14.60;;;8.43;;
10651;SDS011;5374;42.742;23.266;2023-11-21T02:41:05;14.47;;;8.60;;
10651;SDS011;5374;42.742;23.266;2023-11-21T02:43:52;16.07;;;9.43;;
10651;SDS011;5374;42.742;23.266;2023-11-21T02:46:40;14.30;;;9.37;;
10651;SDS011;5374;42.742;23.266;2023-11-21T02:49:27;15.40;;;9.53;;
10651;SDS011;5374;42.742;23.266;2023-11-21T02:52:14;15.63;;;9.50;;
10651;SDS011;5374;42.742;23.266;2023-11-21T02:55:02;15.43;;;10.27;;
10651;SDS011;5374;42.742;23.266;2023-11-21T02:57:50;17.23;;;9.47;;
10651;SDS011;5374;42.742;23.266;2023-11-21T03:00:37;14.80;;;9.80;;
10651;SDS011;5374;42.742;23.266;2023-11-21T03:03:27;13.67;;;9.57;;
10651;SDS011;5374;42.742;23.266;2023-11-21T03:06:15;15.40;;;9.13;;
10651;SDS011;5374;42.742;23.266;2023-11-21T03:09:02;13.10;;;9.80;;
10651;SDS011;5374;42.742;23.266;2023-11-21T03:11:49;13.70;;;9.80;;
10651;SDS011;5374;42.742;23.266;2023-11-21T03:14:38;19.30;;;11.83;;
10651;SDS011;5374;42.742;23.266;2023-11-21T03:17:25;77.43;;;39.17;;
10651;SDS011;5374;42.742;23.266;2023-11-21T03:20:12;52.90;;;29.67;;
10651;SDS011;5374;42.742;23.266;2023-11-21T03:23:01;36.50;;;21.10;;
10651;SDS011;5374;42.742;23.266;2023-11-21T03:25:50;40.53;;;22.17;;
10651;SDS011;5374;42.742;23.266;2023-11-21T03:28:37;36.10;;;20.03;;
10651;SDS011;5374;42.742;23.266;2023-11-21T03:31:26;38.10;;;19.53;;
10651;SDS011;5374;42.742;23.266;2023-11-21T03:34:15;26.30;;;17.00;;
10651;SDS011;5374;42.742;23.266;2023-11-21T03:37:02;27.43;;;16.37;;
10651;SDS011;5374;42.742;23.266;2023-11-21T03:39:50;26.33;;;16.53;;
10651;SDS011;5374;42.742;23.266;2023-11-21T03:42:37;22.10;;;13.27;;
10651;SDS011;5374;42.742;23.266;2023-11-21T03:45:25;19.37;;;12.70;;
10651;SDS011;5374;42.742;23.266;2023-11-21T03:48:13;21.90;;;13.03;;
10651;SDS011;5374;42.742;23.266;2023-11-21T03:51:01;16.93;;;11.27;;
10651;SDS011;5374;42.742;23.266;2023-11-21T03:53:49;16.17;;;12.17;;
10651;SDS011;5374;42.742;23.266;2023-11-21T03:56:36;18.03;;;12.33;;
10651;SDS011;5374;42.742;23.266;2023-11-21T03:59:23;20.50;;;13.40;;
10651;SDS011;5374;42.742;23.266;2023-11-21T04:02:10;22.03;;;13.47;;
10651;SDS011;5374;42.742;23.266;2023-11-21T04:04:59;24.33;;;14.07;;
10651;SDS011;5374;42.742;23.266;2023-11-21T04:07:46;24.50;;;16.40;;
10651;SDS011;5374;42.742;23.266;2023-11-21T04:10:33;23.97;;;15.23;;
10651;SDS011;5374;42.742;23.266;2023-11-21T04:13:20;19.60;;;14.60;;
10651;SDS011;5374;42.742;23.266;2023-11-21T04:16:08;28.03;;;16.87;;
10651;SDS011;5374;42.742;23.266;2023-11-21T04:18:55;35.07;;;20.27;;
10651;SDS011;5374;42.742;23.266;2023-11-21T04:21:44;31.97;;;18.93;;
10651;SDS011;5374;42.742;23.266;2023-11-21T04:24:31;23.70;;;15.67;;
10651;SDS011;5374;42.742;23.266;2023-11-21T04:27:18;19.50;;;14.50;;
10651;SDS011;5374;42.742;23.266;2023-11-21T04:30:08;23.60;;;14.50;;
10651;SDS011;5374;42.742;23.266;2023-11-21T04:32:56;19.00;;;13.90;;
10651;SDS011;5374;42.742;23.266;2023-11-21T04:35:43;21.67;;;14.60;;
10651;SDS011;5374;42.742;23.266;2023-11-21T04:38:32;24.30;;;16.20;;
10651;SDS011;5374;42.742;23.266;2023-11-21T04:41:19;28.70;;;18.83;;
10651;SDS011;5374;42.742;23.266;2023-11-21T04:44:06;32.47;;;18.40;;
10651;SDS011;5374;42.742;23.266;2023-11-21T04:46:53;28.87;;;19.20;;
10651;SDS011;5374;42.742;23.266;2023-11-21T04:49:42;32.83;;;20.90;;
10651;SDS011;5374;42.742;23.266;2023-11-21T04:52:33;24.77;;;16.17;;
10651;SDS011;5374;42.742;23.266;2023-11-21T04:55:22;24.73;;;17.30;;
10651;SDS011;5374;42.742;23.266;2023-11-21T04:58:09;24.67;;;16.47;;
10651;SDS011;5374;42.742;23.266;2023-11-21T05:00:57;24.90;;;16.10;;
10651;SDS011;5374;42.742;23.266;2023-11-21T05:03:44;22.50;;;14.60;;
10651;SDS011;5374;42.742;23.266;2023-11-21T05:06:32;27.73;;;15.67;;
10651;SDS011;5374;42.742;23.266;2023-11-21T05:09:19;25.93;;;16.73;;
10651;SDS011;5374;42.742;23.266;2023-11-21T05:12:09;35.07;;;19.97;;
10651;SDS011;5374;42.742;23.266;2023-11-21T05:14:56;30.03;;;19.60;;
10651;SDS011;5374;42.742;23.266;2023-11-21T05:17:44;30.73;;;20.30;;
10651;SDS011;5374;42.742;23.266;2023-11-21T05:20:31;33.70;;;20.63;;
10651;SDS011;5374;42.742;23.266;2023-11-21T05:23:18;31.60;;;19.73;;
10651;SDS011;5374;42.742;23.266;2023-11-21T05:26:10;46.87;;;24.43;;
10651;SDS011;5374;42.742;23.266;2023-11-21T05:28:59;59.33;;;32.27;;
10651;SDS011;5374;42.742;23.266;2023-11-21T05:31:46;52.03;;;31.80;;
10651;SDS011;5374;42.742;23.266;2023-11-21T05:34:33;50.90;;;31.53;;
10651;SDS011;5374;42.742;23.266;2023-11-21T05:37:21;46.70;;;31.33;;
10651;SDS011;5374;42.742;23.266;2023-11-21T05:40:08;49.13;;;30.27;;
10651;SDS011;5374;42.742;23.266;2023-11-21T05:42:56;38.13;;;28.03;;
10651;SDS011;5374;42.742;23.266;2023-11-21T05:45:45;47.60;;;29.50;;
10651;SDS011;5374;42.742;23.266;2023-11-21T05:48:32;44.10;;;28.50;;
10651;SDS011;5374;42.742;23.266;2023-11-21T05:51:19;42.90;;;26.97;;
10651;SDS011;5374;42.742;23.266;2023-11-21T05:54:06;43.30;;;27.23;;
10651;SDS011;5374;42.742;23.266;2023-11-21T05:56:54;46.77;;;26.67;;
10651;SDS011;5374;42.742;23.266;2023-11-21T05:59:41;38.43;;;19.70;;
10651;SDS011;5374;42.742;23.266;2023-11-21T06:02:30;29.00;;;14.63;;
10651;SDS011;5374;42.742;23.266;2023-11-21T06:05:17;25.83;;;15.73;;
10651;SDS011;5374;42.742;23.266;2023-11-21T06:08:05;26.87;;;15.70;;
10651;SDS011;5374;42.742;23.266;2023-11-21T06:10:52;22.97;;;14.87;;
10651;SDS011;5374;42.742;23.266;2023-11-21T06:13:41;30.03;;;15.00;;
10651;SDS011;5374;42.742;23.266;2023-11-21T06:16:28;27.57;;;14.67;;
10651;SDS011;5374;42.742;23.266;2023-11-21T06:19:16;22.63;;;15.33;;
10651;SDS011;5374;42.742;23.266;2023-11-21T06:22:04;25.90;;;15.17;;
10651;SDS011;5374;42.742;23.266;2023-11-21T06:24:51;319.03;;;184.57;;
10651;SDS011;5374;42.742;23.266;2023-11-21T06:27:39;74.63;;;44.10;;
10651;SDS011;5374;42.742;23.266;2023-11-21T06:30:27;36.93;;;20.80;;
10651;SDS011;5374;42.742;23.266;2023-11-21T06:33:14;25.13;;;17.13;;
10651;SDS011;5374;42.742;23.266;2023-11-21T06:36:03;23.87;;;16.10;;
10651;SDS011;5374;42.742;23.266;2023-11-21T06:38:51;23.33;;;16.13;;
10651;SDS011;5374;42.742;23.266;2023-11-21T06:41:38;30.17;;;17.63;;
10651;SDS011;5374;42.742;23.266;2023-11-21T06:44:25;31.27;;;19.07;;
10651;SDS011;5374;42.742;23.266;2023-11-21T06:47:13;29.60;;;18.23;;
10651;SDS011;5374;42.742;23.266;2023-11-21T06:50:00;24.27;;;16.37;;
10651;SDS011;5374;42.742;23.266;2023-11-21T06:52:49;25.47;;;15.60;;
10651;SDS011;5374;42.742;23.266;2023-11-21T06:55:36;23.57;;;15.90;;
10651;SDS011;5374;42.742;23.266;2023-11-21T06:58:23;21.60;;;14.27;;
10651;SDS011;5374;42.742;23.266;2023-11-21T07:01:10;22.53;;;13.87;;
10651;SDS011;5374;42.742;23.266;2023-11-21T07:03:58;45.23;;;25.07;;
10651;SDS011;5374;42.742;23.266;2023-11-21T07:06:45;38.53;;;27.13;;
10651;SDS011;5374;42.742;23.266;2023-11-21T07:09:33;85.30;;;54.60;;
10651;SDS011;5374;42.742;23.266;2023-11-21T07:12:20;83.10;;;56.43;;
10651;SDS011;5374;42.742;23.266;2023-11-21T07:15:09;63.13;;;44.73;;
10651;SDS011;5374;42.742;23.266;2023-11-21T07:17:56;52.47;;;37.00;;
10651;SDS011;5374;42.742;23.266;2023-11-21T07:20:43;45.90;;;27.23;;
10651;SDS011;5374;42.742;23.266;2023-11-21T07:23:30;41.77;;;24.13;;
10651;SDS011;5374;42.742;23.266;2023-11-21T07:26:19;33.40;;;19.30;;
10651;SDS011;5374;42.742;23.266;2023-11-21T07:29:06;34.63;;;19.83;;
10651;SDS011;5374;42.742;23.266;2023-11-21T07:31:53;27.50;;;19.03;;
10651;SDS011;5374;42.742;23.266;2023-11-21T07:34:40;35.27;;;18.60;;
10651;SDS011;5374;42.742;23.266;2023-11-21T07:37:28;29.17;;;19.43;;
10651;SDS011;5374;42.742;23.266;2023-11-21T07:40:15;26.53;;;17.00;;
10651;SDS011;5374;42.742;23.266;2023-11-21T07:43:04;30.00;;;19.07;;
10651;SDS011;5374;42.742;23.266;2023-11-21T07:45:51;28.63;;;17.57;;
10651;SDS011;5374;42.742;23.266;2023-11-21T07:48:39;28.03;;;17.97;;
10651;SDS011;5374;42.742;23.266;2023-11-21T07:51:27;30.90;;;21.03;;
10651;SDS011;5374;42.742;23.266;2023-11-21T07:54:14;25.57;;;19.20;;
10651;SDS011;5374;42.742;23.266;2023-11-21T07:57:02;27.00;;;17.33;;
10651;SDS011;5374;42.742;23.266;2023-11-21T07:59:51;22.00;;;17.17;;
10651;SDS011;5374;42.742;23.266;2023-11-21T08:02:39;25.80;;;18.97;;
10651;SDS011;5374;42.742;23.266;2023-11-21T08:05:27;24.10;;;17.60;;
10651;SDS011;5374;42.742;23.266;2023-11-21T08:08:15;22.23;;;17.27;;
10651;SDS011;5374;42.742;23.266;2023-11-21T08:11:04;26.00;;;16.87;;
10651;SDS011;5374;42.742;23.266;2023-11-21T08:13:53;23.33;;;16.43;;
10651;SDS011;5374;42.742;23.266;2023-11-21T08:16:42;24.77;;;17.03;;
10651;SDS011;5374;42.742;23.266;2023-11-21T08:19:30;29.60;;;17.83;;
10651;SDS011;5374;42.742;23.266;2023-11-21T08:22:18;30.17;;;18.53;;
10651;SDS011;5374;42.742;23.266;2023-11-21T08:25:06;26.57;;;17.33;;
10651;SDS011;5374;42.742;23.266;2023-11-21T08:27:53;25.60;;;16.43;;
10651;SDS011;5374;42.742;23.266;2023-11-21T08:30:41;24.23;;;17.03;;
10651;SDS011;5374;42.742;23.266;2023-11-21T08:33:29;33.03;;;19.77;;
10651;SDS011;5374;42.742;23.266;2023-11-21T08:36:16;36.07;;;21.87;;
10651;SDS011;5374;42.742;23.266;2023-11-21T08:39:04;30.27;;;18.93;;
10651;SDS011;5374;42.742;23.266;2023-11-21T08:41:51;25.23;;;18.00;;
10651;SDS011;5374;42.742;23.266;2023-11-21T08:44:38;27.87;;;17.33;;
10651;SDS011;5374;42.742;23.266;2023-11-21T08:47:25;25.33;;;17.00;;
10651;SDS011;5374;42.742;23.266;2023-11-21T08:50:14;23.93;;;16.33;;
10651;SDS011;5374;42.742;23.266;2023-11-21T08:53:01;24.33;;;16.37;;
10651;SDS011;5374;42.742;23.266;2023-11-21T08:55:48;20.23;;;16.47;;
10651;SDS011;5374;42.742;23.266;2023-11-21T08:58:35;25.67;;;17.53;;
10651;SDS011;5374;42.742;23.266;2023-11-21T09:01:23;22.57;;;17.87;;
10651;SDS011;5374;42.742;23.266;2023-11-21T09:04:10;32.07;;;18.33;;
10651;SDS011;5374;42.742;23.266;2023-11-21T09:06:59;27.40;;;18.97;;
10651;SDS011;5374;42.742;23.266;2023-11-21T09:09:46;24.67;;;18.00;;
10651;SDS011;5374;42.742;23.266;2023-11-21T09:12:34;30.27;;;19.17;;
10651;SDS011;5374;42.742;23.266;2023-11-21T09:15:22;25.33;;;17.77;;
10651;SDS011;5374;42.742;23.266;2023-11-21T09:18:10;25.63;;;18.87;;
10651;SDS011;5374;42.742;23.266;2023-11-21T09:20:57;27.63;;;19.97;;
10651;SDS011;5374;42.742;23.266;2023-11-21T09:23:46;26.60;;;18.80;;
10651;SDS011;5374;42.742;23.266;2023-11-21T09:26:34;26.90;;;19.63;;
10651;SDS011;5374;42.742;23.266;2023-11-21T09:29:22;25.67;;;18.60;;
10651;SDS011;5374;42.742;23.266;2023-11-21T09:32:09;28.67;;;19.20;;
10651;SDS011;5374;42.742;23.266;2023-11-21T09:34:59;25.07;;;18.40;;
10651;SDS011;5374;42.742;23.266;2023-11-21T09:37:47;22.33;;;16.50;;
10651;SDS011;5374;42.742;23.266;2023-11-21T09:40:37;27.57;;;17.17;;
10651;SDS011;5374;42.742;23.266;2023-11-21T09:43:24;26.93;;;17.33;;
10651;SDS011;5374;42.742;23.266;2023-11-21T09:46:15;24.80;;;17.17;;
10651;SDS011;5374;42.742;23.266;2023-11-21T09:49:06;27.50;;;17.73;;
10651;SDS011;5374;42.742;23.266;2023-11-21T09:51:57;25.80;;;18.13;;
10651;SDS011;5374;42.742;23.266;2023-11-21T09:54:49;30.50;;;18.93;;
10651;SDS011;5374;42.742;23.266;2023-11-21T09:57:38;31.67;;;21.30;;
10651;SDS011;5374;42.742;23.266;2023-11-21T10:00:26;28.70;;;20.60;;
10651;SDS011;5374;42.742;23.266;2023-11-21T10:03:14;29.37;;;21.83;;
10651;SDS011;5374;42.742;23.266;2023-11-21T10:06:02;35.87;;;22.73;;
10651;SDS011;5374;42.742;23.266;2023-11-21T10:08:51;35.13;;;21.67;;
10651;SDS011;5374;42.742;23.266;2023-11-21T10:11:39;29.47;;;21.17;;
10651;SDS011;5374;42.742;23.266;2023-11-21T10:14:31;34.53;;;21.87;;
10651;SDS011;5374;42.742;23.266;2023-11-21T10:17:20;35.33;;;23.47;;
10651;SDS011;5374;42.742;23.266;2023-11-21T10:20:11;31.43;;;22.87;;
10651;SDS011;5374;42.742;23.266;2023-11-21T10:22:59;36.10;;;24.47;;
10651;SDS011;5374;42.742;23.266;2023-11-21T10:25:48;36.90;;;22.10;;
10651;SDS011;5374;42.742;23.266;2023-11-21T10:28:37;30.17;;;21.00;;
10651;SDS011;5374;42.742;23.266;2023-11-21T10:31:26;31.23;;;21.63;;
10651;SDS011;5374;42.742;23.266;2023-11-21T10:34:14;32.23;;;22.67;;
10651;SDS011;5374;42.742;23.266;2023-11-21T10:37:10;36.13;;;21.70;;
10651;SDS011;5374;42.742;23.266;2023-11-21T10:39:58;32.07;;;21.27;;
10651;SDS011;5374;42.742;23.266;2023-11-21T10:42:46;30.83;;;19.30;;
10651;SDS011;5374;42.742;23.266;2023-11-21T10:45:33;27.20;;;18.20;;
10651;SDS011;5374;42.742;23.266;2023-11-21T10:48:21;26.67;;;18.77;;
10651;SDS011;5374;42.742;23.266;2023-11-21T10:51:09;22.37;;;16.73;;
10651;SDS011;5374;42.742;23.266;2023-11-21T10:53:56;25.83;;;18.60;;
10651;SDS011;5374;42.742;23.266;2023-11-21T10:56:45;26.73;;;18.60;;
10651;SDS011;5374;42.742;23.266;2023-11-21T10:59:36;27.57;;;20.47;;
10651;SDS011;5374;42.742;23.266;2023-11-21T11:02:24;23.93;;;19.47;;
10651;SDS011;5374;42.742;23.266;2023-11-21T11:05:14;32.13;;;19.93;;
10651;SDS011;5374;42.742;23.266;2023-11-21T11:08:06;29.70;;;19.90;;
10651;SDS011;5374;42.742;23.266;2023-11-21T11:10:58;35.00;;;21.30;;
10651;SDS011;5374;42.742;23.266;2023-11-21T11:13:45;31.33;;;20.53;;
10651;SDS011;5374;42.742;23.266;2023-11-21T11:16:32;28.10;;;19.67;;
10651;SDS011;5374;42.742;23.266;2023-11-21T11:19:21;28.07;;;19.43;;
10651;SDS011;5374;42.742;23.266;2023-11-21T11:22:12;31.17;;;24.00;;
10651;SDS011;5374;42.742;23.266;2023-11-21T11:25:19;25.97;;;19.30;;
10651;SDS011;5374;42.742;23.266;2023-11-21T11:28:19;27.27;;;20.30;;
10651;SDS011;5374;42.742;23.266;2023-11-21T11:31:10;28.27;;;22.07;;
10651;SDS011;5374;42.742;23.266;2023-11-21T11:34:14;36.87;;;22.63;;
10651;SDS011;5374;42.742;23.266;2023-11-21T11:37:11;30.30;;;21.53;;
10651;SDS011;5374;42.742;23.266;2023-11-21T11:40:02;40.17;;;28.60;;
10651;SDS011;5374;42.742;23.266;2023-11-21T11:42:56;48.17;;;29.07;;
10651;SDS011;5374;42.742;23.266;2023-11-21T11:45:44;51.80;;;27.73;;
10651;SDS011;5374;42.742;23.266;2023-11-21T11:48:37;41.40;;;25.17;;
10651;SDS011;5374;42.742;23.266;2023-11-21T11:51:25;36.00;;;23.27;;
10651;SDS011;5374;42.742;23.266;2023-11-21T11:54:15;37.33;;;27.73;;
10651;SDS011;5374;42.742;23.266;2023-11-21T11:57:06;35.60;;;25.40;;
10651;SDS011;5374;42.742;23.266;2023-11-21T12:03:07;32.37;;;21.40;;
10651;SDS011;5374;42.742;23.266;2023-11-21T12:05:55;30.33;;;21.33;;
10651;SDS011;5374;42.742;23.266;2023-11-21T12:08:43;33.57;;;22.93;;
10651;SDS011;5374;42.742;23.266;2023-11-21T12:11:32;37.27;;;24.73;;
10651;SDS011;5374;42.742;23.266;2023-11-21T12:14:20;35.97;;;26.13;;
10651;SDS011;5374;42.742;23.266;2023-11-21T12:17:08;28.97;;;21.67;;
10651;SDS011;5374;42.742;23.266;2023-11-21T12:20:01;31.20;;;20.80;;
10651;SDS011;5374;42.742;23.266;2023-11-21T12:22:59;26.73;;;19.00;;
10651;SDS011;5374;42.742;23.266;2023-11-21T12:25:47;23.50;;;17.73;;
10651;SDS011;5374;42.742;23.266;2023-11-21T12:28:35;22.43;;;17.47;;
10651;SDS011;5374;42.742;23.266;2023-11-21T12:31:23;21.17;;;17.07;;
10651;SDS011;5374;42.742;23.266;2023-11-21T12:34:10;21.43;;;17.10;;
10651;SDS011;5374;42.742;23.266;2023-11-21T12:36:58;27.27;;;20.43;;
10651;SDS011;5374;42.742;23.266;2023-11-21T12:39:46;26.97;;;20.80;;
10651;SDS011;5374;42.742;23.266;2023-11-21T12:42:35;28.57;;;18.83;;
10651;SDS011;5374;42.742;23.266;2023-11-21T12:45:24;28.67;;;18.33;;
10651;SDS011;5374;42.742;23.266;2023-11-21T12:48:13;24.07;;;18.07;;
10651;SDS011;5374;42.742;23.266;2023-11-21T12:51:02;29.83;;;21.13;;
10651;SDS011;5374;42.742;23.266;2023-11-21T12:53:52;37.67;;;25.63;;
10651;SDS011;5374;42.742;23.266;2023-11-21T12:56:39;70.60;;;44.10;;
10651;SDS011;5374;42.742;23.266;2023-11-21T12:59:26;75.77;;;47.10;;
10651;SDS011;5374;42.742;23.266;2023-11-21T13:02:15;53.70;;;38.57;;
10651;SDS011;5374;42.742;23.266;2023-11-21T13:05:03;39.10;;;28.23;;
10651;SDS011;5374;42.742;23.266;2023-11-21T13:07:59;31.50;;;24.93;;
10651;SDS011;5374;42.742;23.266;2023-11-21T13:10:49;30.37;;;22.13;;
10651;SDS011;5374;42.742;23.266;2023-11-21T13:13:39;29.80;;;22.47;;
10651;SDS011;5374;42.742;23.266;2023-11-21T13:16:28;22.70;;;19.57;;
10651;SDS011;5374;42.742;23.266;2023-11-21T13:19:17;36.07;;;17.23;;
10651;SDS011;5374;42.742;23.266;2023-11-21T13:22:07;23.60;;;16.13;;
10651;SDS011;5374;42.742;23.266;2023-11-21T13:24:56;21.30;;;16.23;;
10651;SDS011;5374;42.742;23.266;2023-11-21T13:27:44;21.73;;;15.13;;
10651;SDS011;5374;42.742;23.266;2023-11-21T13:30:31;31.30;;;23.63;;
10651;SDS011;5374;42.742;23.266;2023-11-21T13:33:20;25.83;;;20.03;;
10651;SDS011;5374;42.742;23.266;2023-11-21T13:36:14;28.33;;;17.97;;
10651;SDS011;5374;42.742;23.266;2023-11-21T13:39:07;23.80;;;18.30;;
10651;SDS011;5374;42.742;23.266;2023-11-21T13:42:00;24.97;;;19.07;;
10651;SDS011;5374;42.742;23.266;2023-11-21T13:44:49;23.57;;;18.50;;
10651;SDS011;5374;42.742;23.266;2023-11-21T13:47:37;24.90;;;18.07;;
10651;SDS011;5374;42.742;23.266;2023-11-21T13:50:25;30.80;;;21.07;;
10651;SDS011;5374;42.742;23.266;2023-11-21T13:53:19;33.73;;;24.23;;
10651;SDS011;5374;42.742;23.266;2023-11-21T13:56:08;47.57;;;29.90;;
10651;SDS011;5374;42.742;23.266;2023-11-21T13:58:55;28.90;;;22.47;;
10651;SDS011;5374;42.742;23.266;2023-11-21T14:01:44;23.93;;;18.50;;
10651;SDS011;5374;42.742;23.266;2023-11-21T14:04:40;26.73;;;19.40;;
10651;SDS011;5374;42.742;23.266;2023-11-21T14:07:39;24.90;;;17.43;;
10651;SDS011;5374;42.742;23.266;2023-11-21T14:10:34;23.90;;;18.17;;
10651;SDS011;5374;42.742;23.266;2023-11-21T14:13:28;24.33;;;17.30;;
10651;SDS011;5374;42.742;23.266;2023-11-21T14:16:15;23.43;;;16.90;;
10651;SDS011;5374;42.742;23.266;2023-11-21T14:19:03;25.30;;;17.03;;
10651;SDS011;5374;42.742;23.266;2023-11-21T14:22:01;21.17;;;16.83;;
10651;SDS011;5374;42.742;23.266;2023-11-21T14:24:48;28.10;;;18.13;;
10651;SDS011;5374;42.742;23.266;2023-11-21T14:27:39;25.80;;;19.00;;
10651;SDS011;5374;42.742;23.266;2023-11-21T14:30:26;28.97;;;20.70;;
10651;SDS011;5374;42.742;23.266;2023-11-21T14:33:15;33.83;;;24.60;;
10651;SDS011;5374;42.742;23.266;2023-11-21T14:36:02;40.10;;;30.07;;
10651;SDS011;5374;42.742;23.266;2023-11-21T14:38:50;50.87;;;36.73;;
10651;SDS011;5374;42.742;23.266;2023-11-21T14:41:37;66.70;;;48.73;;
10651;SDS011;5374;42.742;23.266;2023-11-21T14:44:26;57.07;;;44.37;;
10651;SDS011;5374;42.742;23.266;2023-11-21T14:47:18;48.13;;;36.27;;
10651;SDS011;5374;42.742;23.266;2023-11-21T14:50:10;45.97;;;35.50;;
10651;SDS011;5374;42.742;23.266;2023-11-21T14:53:25;50.57;;;37.07;;
10651;SDS011;5374;42.742;23.266;2023-11-21T14:56:28;65.93;;;44.77;;
10651;SDS011;5374;42.742;23.266;2023-11-21T14:59:16;76.63;;;49.77;;
10651;SDS011;5374;42.742;23.266;2023-11-21T15:02:04;88.97;;;56.63;;
10651;SDS011;5374;42.742;23.266;2023-11-21T15:05:01;81.33;;;51.33;;
10651;SDS011;5374;42.742;23.266;2023-11-21T15:07:49;80.50;;;52.37;;
10651;SDS011;5374;42.742;23.266;2023-11-21T15:10:35;81.37;;;51.63;;
10651;SDS011;5374;42.742;23.266;2023-11-21T15:13:31;88.07;;;56.17;;
10651;SDS011;5374;42.742;23.266;2023-11-21T15:16:17;91.87;;;60.03;;
10651;SDS011;5374;42.742;23.266;2023-11-21T15:19:06;107.83;;;69.63;;
10651;SDS011;5374;42.742;23.266;2023-11-21T15:21:54;148.40;;;90.30;;
10651;SDS011;5374;42.742;23.266;2023-11-21T15:24:42;139.67;;;82.43;;
10651;SDS011;5374;42.742;23.266;2023-11-21T15:27:31;127.07;;;74.27;;
10651;SDS011;5374;42.742;23.266;2023-11-21T15:30:18;845.13;;;517.73;;
10651;SDS011;5374;42.742;23.266;2023-11-21T15:33:10;1069.23;;;555.73;;
10651;SDS011;5374;42.742;23.266;2023-11-21T15:35:59;257.90;;;127.90;;
10651;SDS011;5374;42.742;23.266;2023-11-21T15:38:46;99.33;;;57.87;;
10651;SDS011;5374;42.742;23.266;2023-11-21T15:41:33;81.33;;;52.27;;
10651;SDS011;5374;42.742;23.266;2023-11-21T15:44:20;95.83;;;61.20;;
10651;SDS011;5374;42.742;23.266;2023-11-21T15:47:08;85.37;;;56.60;;
10651;SDS011;5374;42.742;23.266;2023-11-21T15:49:55;92.30;;;65.93;;
10651;SDS011;5374;42.742;23.266;2023-11-21T15:52:45;98.10;;;68.50;;
10651;SDS011;5374;42.742;23.266;2023-11-21T15:55:33;81.53;;;54.43;;
10651;SDS011;5374;42.742;23.266;2023-11-21T15:58:21;63.17;;;35.90;;
10651;SDS011;5374;42.742;23.266;2023-11-21T16:01:10;59.20;;;32.80;;
10651;SDS011;5374;42.742;23.266;2023-11-21T16:03:58;57.50;;;33.73;;
10651;SDS011;5374;42.742;23.266;2023-11-21T16:06:46;85.20;;;53.73;;
10651;SDS011;5374;42.742;23.266;2023-11-21T16:09:34;68.47;;;38.97;;
10651;SDS011;5374;42.742;23.266;2023-11-21T16:12:23;55.53;;;34.47;;
10651;SDS011;5374;42.742;23.266;2023-11-21T16:15:10;56.33;;;33.43;;
10651;SDS011;5374;42.742;23.266;2023-11-21T16:17:58;52.83;;;33.70;;
10651;SDS011;5374;42.742;23.266;2023-11-21T16:20:45;50.10;;;34.03;;
10651;SDS011;5374;42.742;23.266;2023-11-21T16:23:35;58.23;;;40.37;;
10651;SDS011;5374;42.742;23.266;2023-11-21T16:26:24;66.43;;;42.40;;
10651;SDS011;5374;42.742;23.266;2023-11-21T16:29:11;60.03;;;38.83;;